createdAt,value
2023-02-11T00:01:49.241Z,50.30
2023-02-11T00:04:17.537Z,52.50
2023-02-11T00:06:45.938Z,50.90
2023-02-11T00:09:14.207Z,55.20
2023-02-11T00:11:42.504Z,53.30
2023-02-11T00:14:12.268Z,66.45
2023-02-11T00:16:41.973Z,55.67
2023-02-11T00:19:11.078Z,54.70
2023-02-11T00:21:39.359Z,47.50
2023-02-11T00:24:07.955Z,50.63
2023-02-11T00:26:37.266Z,50.58
2023-02-11T00:29:06.157Z,55.97
2023-02-11T00:31:34.633Z,48.60
2023-02-11T00:34:04.458Z,48.35
2023-02-11T00:36:32.797Z,62.03
2023-02-11T00:39:01.184Z,51.40
2023-02-11T00:41:30.052Z,48.70
2023-02-11T00:44:00.851Z,48.58
2023-02-11T00:46:29.203Z,51.47
2023-02-11T00:48:57.945Z,51.25
2023-02-11T00:51:28.156Z,48.50
2023-02-11T00:53:56.516Z,50.78
2023-02-11T00:56:24.810Z,49.17
2023-02-11T00:58:53.917Z,51.28
2023-02-11T01:01:22.263Z,53.58
2023-02-11T01:03:50.575Z,49.33
2023-02-11T01:06:19.016Z,51.17
2023-02-11T01:08:48.664Z,49.72
2023-02-11T01:11:18.294Z,47.50
2023-02-11T01:13:47.388Z,52.08
2023-02-11T01:16:17.522Z,47.03
2023-02-11T01:18:47.400Z,55.65
2023-02-11T01:21:16.135Z,51.50
2023-02-11T01:23:44.727Z,44.95
2023-02-11T01:26:14.932Z,46.55
2023-02-11T01:28:43.340Z,53.55
2023-02-11T01:31:11.821Z,47.83
2023-02-11T01:33:40.591Z,48.92
2023-02-11T01:36:09.349Z,47.22
2023-02-11T01:38:38.885Z,54.80
2023-02-11T01:41:08.387Z,48.90
2023-02-11T01:43:39.096Z,57.55
2023-02-11T01:46:25.089Z,54.78
2023-02-11T01:48:54.878Z,50.67
2023-02-11T01:51:25.627Z,52.03
2023-02-11T01:54:11.913Z,44.75
2023-02-11T01:57:01.530Z,49.75
2023-02-11T01:59:33.248Z,46.35
2023-02-11T02:02:04.436Z,47.70
2023-02-11T02:04:34.827Z,52.67
2023-02-11T02:07:05.551Z,48.67
2023-02-11T02:09:38.132Z,47.63
2023-02-11T02:12:06.589Z,52.50
2023-02-11T02:14:39.291Z,49.95
2023-02-11T02:17:26.184Z,46.15
2023-02-11T02:20:08.605Z,50.42
2023-02-11T02:22:52.628Z,50.55
2023-02-11T02:25:37.916Z,45.40
2023-02-11T02:28:13.473Z,51.05
2023-02-11T02:30:53.628Z,47.20
2023-02-11T02:33:35.188Z,47.72
2023-02-11T02:36:07.616Z,46.28
2023-02-11T02:38:38.219Z,47.35
2023-02-11T02:41:08.829Z,47.78
2023-02-11T02:43:38.395Z,46.65
2023-02-11T02:46:13.714Z,47.45
2023-02-11T02:48:43.400Z,48.28
2023-02-11T02:51:22.103Z,48.17
2023-02-11T02:53:55.115Z,48.05
2023-02-11T02:56:26.416Z,48.78
2023-02-11T02:59:18.645Z,48.15
2023-02-11T03:01:52.669Z,45.88
2023-02-11T03:04:26.925Z,47.92
2023-02-11T03:06:57.450Z,47.65
2023-02-11T03:09:27.813Z,48.10
2023-02-11T03:11:56.229Z,51.35
2023-02-11T03:14:26.686Z,49.17
2023-02-11T03:16:56.391Z,49.22
2023-02-11T03:19:28.169Z,47.22
2023-02-11T03:21:57.300Z,52.85
2023-02-11T03:24:28.767Z,45.70
2023-02-11T03:26:59.481Z,46.08
2023-02-11T03:29:32.995Z,50.92
2023-02-11T03:32:04.183Z,47.22
2023-02-11T03:34:37.408Z,46.90
2023-02-11T03:37:07.923Z,43.65
2023-02-11T03:39:38.270Z,49.42
2023-02-11T03:42:07.538Z,48.60
2023-02-11T03:44:37.769Z,51.70
2023-02-11T03:47:08.933Z,44.08
2023-02-11T03:49:39.929Z,47.60
2023-02-11T03:52:11.168Z,40.38
2023-02-11T03:54:42.477Z,46.70
2023-02-11T03:57:10.900Z,46.58
2023-02-11T03:59:51.891Z,43.20
2023-02-11T04:02:20.383Z,50.33
2023-02-11T04:04:50.078Z,42.08
2023-02-11T04:07:18.319Z,43.00
2023-02-11T04:09:46.613Z,42.70
2023-02-11T04:12:14.900Z,47.42
2023-02-11T04:14:43.215Z,48.50
2023-02-11T04:17:11.965Z,44.53
2023-02-11T04:19:40.540Z,42.72
2023-02-11T04:22:10.170Z,43.78
2023-02-11T04:24:38.578Z,43.20
2023-02-11T04:27:06.815Z,48.22
2023-02-11T04:29:35.122Z,38.90
2023-02-11T04:32:03.513Z,41.90
2023-02-11T04:34:31.922Z,41.42
2023-02-11T04:37:00.249Z,40.85
2023-02-11T04:39:29.880Z,44.78
2023-02-11T04:41:58.175Z,41.25
2023-02-11T04:44:26.508Z,42.40
2023-02-11T04:46:54.842Z,44.67
2023-02-11T04:49:23.190Z,40.72
2023-02-11T04:51:51.496Z,44.95
2023-02-11T04:54:19.914Z,40.97
2023-02-11T04:56:50.990Z,46.63
2023-02-11T04:59:19.293Z,39.65
2023-02-11T05:01:47.608Z,38.17
2023-02-11T05:04:15.951Z,43.78
2023-02-11T05:06:44.282Z,40.40
2023-02-11T05:09:12.640Z,41.50
2023-02-11T05:11:40.958Z,41.50
2023-02-11T05:14:10.550Z,44.90
2023-02-11T05:16:38.859Z,43.92
2023-02-11T05:19:07.128Z,41.72
2023-02-11T05:21:35.408Z,39.03
2023-02-11T05:24:03.662Z,43.55
2023-02-11T05:26:32.032Z,39.10
2023-02-11T05:29:00.371Z,40.22
2023-02-11T05:31:30.096Z,38.08
2023-02-11T05:33:58.392Z,39.33
2023-02-11T05:36:26.646Z,42.30
2023-02-11T05:38:54.947Z,39.22
2023-02-11T05:41:23.200Z,37.95
2023-02-11T05:43:52.323Z,38.60
2023-02-11T05:46:20.804Z,40.08
2023-02-11T05:48:50.436Z,38.50
2023-02-11T05:51:18.714Z,38.33
2023-02-11T05:53:47.007Z,38.70
2023-02-11T05:56:15.488Z,43.80
2023-02-11T05:58:43.700Z,36.40
2023-02-11T06:01:11.967Z,37.05
2023-02-11T06:03:40.346Z,39.25
2023-02-11T06:06:12.428Z,40.58
2023-02-11T06:08:41.027Z,40.10
2023-02-11T06:11:09.279Z,38.10
2023-02-11T06:13:37.677Z,40.03
2023-02-11T06:16:06.292Z,39.65
2023-02-11T06:18:34.664Z,36.75
2023-02-11T06:21:03.298Z,41.47
2023-02-11T06:23:32.981Z,39.17
2023-02-11T06:26:03.213Z,39.78
2023-02-11T06:28:32.289Z,40.00
2023-02-11T06:31:00.992Z,41.65
2023-02-11T06:33:29.377Z,38.17
2023-02-11T06:35:57.711Z,42.85
2023-02-11T06:38:25.932Z,45.75
2023-02-11T06:40:55.554Z,41.35
2023-02-11T06:43:23.825Z,41.80
2023-02-11T06:45:54.457Z,39.17
2023-02-11T06:48:22.916Z,44.08
2023-02-11T06:50:51.187Z,41.00
2023-02-11T06:53:19.422Z,37.63
2023-02-11T06:55:47.745Z,43.70
2023-02-11T06:58:17.496Z,42.63
2023-02-11T07:00:46.005Z,41.08
2023-02-11T07:03:14.418Z,38.17
2023-02-11T07:05:44.095Z,39.50
2023-02-11T07:08:12.411Z,33.70
2023-02-11T07:10:40.700Z,35.25
2023-02-11T07:13:09.007Z,36.28
2023-02-11T07:15:39.530Z,40.78
2023-02-11T07:18:07.825Z,36.90
2023-02-11T07:20:36.092Z,41.50
2023-02-11T07:23:04.336Z,34.53
2023-02-11T07:25:32.621Z,36.75
2023-02-11T07:28:00.982Z,33.78
2023-02-11T07:30:29.344Z,36.88
2023-02-11T07:32:59.488Z,37.63
2023-02-11T07:35:27.830Z,33.45
2023-02-11T07:37:56.114Z,33.88
2023-02-11T07:40:24.366Z,34.95
2023-02-11T07:42:52.608Z,37.47
2023-02-11T07:45:20.928Z,39.05
2023-02-11T07:47:49.217Z,37.80
2023-02-11T07:50:19.816Z,34.85
2023-02-11T07:52:48.205Z,37.22
2023-02-11T07:55:16.629Z,40.13
2023-02-11T07:57:45.393Z,36.97
2023-02-11T08:00:14.357Z,38.47
2023-02-11T08:02:42.653Z,35.72
2023-02-11T08:05:11.104Z,34.30
2023-02-11T08:07:40.661Z,34.50
2023-02-11T08:10:09.237Z,38.40
2023-02-11T08:12:37.504Z,33.10
2023-02-11T08:15:05.998Z,33.05
2023-02-11T08:17:36.361Z,38.25
2023-02-11T08:20:05.089Z,38.10
2023-02-11T08:22:33.643Z,36.08
2023-02-11T08:25:03.481Z,33.38
2023-02-11T08:27:31.860Z,36.22
2023-02-11T08:30:00.307Z,38.63
2023-02-11T08:35:21.443Z,36.35
2023-02-11T08:37:49.701Z,35.40
2023-02-11T08:40:19.742Z,34.03
2023-02-11T08:42:48.127Z,33.15
2023-02-11T08:45:16.469Z,44.42
2023-02-11T08:47:44.753Z,35.67
2023-02-11T08:50:13.082Z,37.78
2023-02-11T08:52:41.707Z,37.60
2023-02-11T08:55:10.028Z,35.92
2023-02-11T08:57:39.677Z,38.55
2023-02-11T09:00:08.658Z,34.58
2023-02-11T09:02:37.175Z,36.08
2023-02-11T09:05:05.618Z,32.45
2023-02-11T09:07:33.879Z,37.97
2023-02-11T09:10:02.375Z,40.30
2023-02-11T09:12:30.962Z,33.97
2023-02-11T09:15:00.642Z,35.17
2023-02-11T09:17:28.901Z,35.28
2023-02-11T09:19:57.168Z,36.33
2023-02-11T09:22:25.428Z,30.88
2023-02-11T09:24:53.655Z,37.42
2023-02-11T09:27:21.958Z,47.35
2023-02-11T09:29:50.224Z,45.40
2023-02-11T09:32:19.862Z,38.63
2023-02-11T09:34:48.182Z,45.38
2023-02-11T09:37:16.511Z,44.40
2023-02-11T09:39:46.148Z,36.42
2023-02-11T09:42:27.153Z,43.70
2023-02-11T09:44:55.877Z,38.00
2023-02-11T09:47:28.590Z,40.40
2023-02-11T09:50:00.597Z,32.67
2023-02-11T09:52:34.152Z,38.08
2023-02-11T09:55:05.946Z,39.55
2023-02-11T09:57:35.089Z,36.40
2023-02-11T10:00:04.214Z,39.90
2023-02-11T10:02:48.772Z,64.82
2023-02-11T10:05:27.246Z,44.35
2023-02-11T10:07:58.678Z,40.55
2023-02-11T10:10:36.673Z,36.50
2023-02-11T10:13:14.453Z,34.90
2023-02-11T10:15:44.872Z,37.95
2023-02-11T10:18:19.818Z,36.53
2023-02-11T10:20:50.807Z,35.88
2023-02-11T10:23:22.687Z,33.65
2023-02-11T10:25:54.343Z,36.20
2023-02-11T10:28:24.774Z,38.80
2023-02-11T10:30:58.126Z,38.17
2023-02-11T10:33:29.766Z,35.25
2023-02-11T10:35:58.088Z,34.30
2023-02-11T10:38:26.600Z,35.33
2023-02-11T10:40:54.936Z,33.28
2023-02-11T10:43:26.208Z,37.00
2023-02-11T10:45:55.292Z,40.08
2023-02-11T10:48:42.377Z,37.78
2023-02-11T10:51:17.141Z,33.25
2023-02-11T10:53:45.529Z,39.95
2023-02-11T10:56:15.860Z,35.10
2023-02-11T10:58:46.757Z,37.97
2023-02-11T11:01:24.381Z,38.13
2023-02-11T11:03:54.610Z,35.45
2023-02-11T11:06:30.797Z,37.85
2023-02-11T11:08:59.357Z,37.13
2023-02-11T11:11:27.932Z,36.00
2023-02-11T11:13:58.102Z,36.05
2023-02-11T11:16:27.511Z,37.63
2023-02-11T11:19:14.822Z,35.30
2023-02-11T11:21:43.859Z,38.38
2023-02-11T11:24:18.225Z,35.78
2023-02-11T11:26:47.709Z,36.03
2023-02-11T11:29:17.894Z,36.22
2023-02-11T11:31:50.983Z,40.08
2023-02-11T11:34:24.795Z,42.13
2023-02-11T11:36:53.224Z,39.47
2023-02-11T11:39:23.957Z,34.53
2023-02-11T11:41:53.301Z,32.70
2023-02-11T11:44:25.295Z,35.97
2023-02-11T11:46:56.613Z,35.97
2023-02-11T11:49:27.656Z,36.22
2023-02-11T11:51:58.426Z,35.85
2023-02-11T11:54:27.280Z,37.78
2023-02-11T11:56:58.945Z,36.88
2023-02-11T11:59:27.398Z,38.72
2023-02-11T12:02:08.999Z,35.35
2023-02-11T12:05:01.363Z,35.63
2023-02-11T12:07:46.432Z,37.85
2023-02-11T12:10:32.023Z,38.15
2023-02-11T12:13:06.888Z,34.83
2023-02-11T12:15:43.534Z,34.85
2023-02-11T12:18:22.400Z,34.53
2023-02-11T12:21:01.036Z,32.22
2023-02-11T12:23:38.539Z,39.88
2023-02-11T12:26:10.428Z,35.20
2023-02-11T12:28:41.948Z,35.00
2023-02-11T12:31:17.376Z,34.28
2023-02-11T12:33:52.098Z,39.88
2023-02-11T12:36:29.046Z,34.80
2023-02-11T12:39:04.067Z,38.00
2023-02-11T12:41:59.636Z,37.42
2023-02-11T12:44:35.417Z,36.88
2023-02-11T12:47:09.989Z,39.75
2023-02-11T12:49:47.246Z,40.45
2023-02-11T12:52:24.421Z,33.65
2023-02-11T12:54:58.001Z,39.28
2023-02-11T12:57:27.458Z,32.67
2023-02-11T12:59:59.537Z,32.45
2023-02-11T13:02:40.296Z,32.97
2023-02-11T13:05:14.507Z,33.20
2023-02-11T13:07:44.755Z,33.33
2023-02-11T13:10:24.148Z,36.75
2023-02-11T13:13:11.129Z,31.95
2023-02-11T13:15:39.512Z,32.63
2023-02-11T13:18:15.465Z,34.53
2023-02-11T13:20:47.610Z,30.50
2023-02-11T13:23:20.868Z,34.03
2023-02-11T13:25:54.695Z,32.17
2023-02-11T13:28:27.525Z,28.60
2023-02-11T13:31:02.654Z,31.42
2023-02-11T13:33:39.476Z,29.17
2023-02-11T13:36:18.538Z,39.10
2023-02-11T13:39:01.439Z,29.33
2023-02-11T13:41:32.660Z,31.00
2023-02-11T13:44:02.449Z,31.25
2023-02-11T13:46:31.821Z,31.48
2023-02-11T13:49:00.390Z,31.13
2023-02-11T13:51:36.995Z,31.70
2023-02-11T13:54:06.350Z,31.63
2023-02-11T13:56:36.870Z,31.85
2023-02-11T13:59:06.213Z,31.60
2023-02-11T14:01:42.099Z,29.85
2023-02-11T14:04:42.027Z,30.60
2023-02-11T14:07:44.639Z,29.20
2023-02-11T14:10:39.910Z,29.85
2023-02-11T14:13:21.258Z,27.17
2023-02-11T14:15:49.526Z,27.23
2023-02-11T14:18:37.878Z,29.42
2023-02-11T14:21:13.005Z,30.70
2023-02-11T14:23:41.971Z,27.75
2023-02-11T14:26:28.986Z,30.50
2023-02-11T14:29:02.508Z,29.45
2023-02-11T14:31:36.188Z,26.70
2023-02-11T14:34:09.580Z,27.20
2023-02-11T14:36:56.280Z,27.45
2023-02-11T14:39:31.093Z,27.27
2023-02-11T14:41:59.592Z,27.63
2023-02-11T14:44:31.145Z,24.48
2023-02-11T14:46:59.819Z,31.10
2023-02-11T14:49:30.311Z,29.92
2023-02-11T14:52:02.001Z,27.58
2023-02-11T14:54:30.689Z,30.77
2023-02-11T14:57:09.111Z,26.70
2023-02-11T14:59:38.992Z,30.08
2023-02-11T15:02:21.321Z,26.60
2023-02-11T15:04:49.602Z,26.33
2023-02-11T15:07:18.744Z,25.73
2023-02-11T15:09:48.731Z,27.55
2023-02-11T15:12:20.088Z,25.33
2023-02-11T15:14:50.522Z,26.83
2023-02-11T15:17:20.936Z,24.40
2023-02-11T15:19:50.865Z,28.35
2023-02-11T15:22:21.293Z,24.90
2023-02-11T15:24:59.587Z,24.92
2023-02-11T15:27:27.840Z,24.65
2023-02-11T15:29:57.442Z,21.70
2023-02-11T15:32:28.592Z,25.17
2023-02-11T15:34:58.398Z,21.58
2023-02-11T15:37:29.541Z,22.98
2023-02-11T15:40:09.949Z,20.92
2023-02-11T15:42:52.240Z,23.42
2023-02-11T15:45:29.522Z,26.02
2023-02-11T15:47:59.462Z,28.20
2023-02-11T15:50:29.323Z,25.98
2023-02-11T15:52:58.569Z,22.50
2023-02-11T15:55:28.404Z,26.27
2023-02-11T15:57:57.771Z,21.27
2023-02-11T16:00:33.043Z,19.55
2023-02-11T16:03:01.503Z,24.90
2023-02-11T16:05:31.609Z,24.00
2023-02-11T16:08:00.825Z,27.90
2023-02-11T16:10:30.454Z,26.45
2023-02-11T16:13:13.670Z,26.25
2023-02-11T16:15:47.720Z,23.15
2023-02-11T16:18:28.516Z,28.60
2023-02-11T16:21:06.241Z,32.30
2023-02-11T16:23:35.981Z,22.10
2023-02-11T16:26:08.339Z,25.83
2023-02-11T16:28:37.688Z,26.75
2023-02-11T16:31:07.693Z,23.98
2023-02-11T16:33:36.039Z,26.80
2023-02-11T16:36:08.131Z,24.52
2023-02-11T16:38:36.400Z,23.35
2023-02-11T16:41:06.016Z,31.65
2023-02-11T16:43:34.407Z,30.67
2023-02-11T16:46:02.666Z,27.23
2023-02-11T16:48:32.662Z,27.75
2023-02-11T16:51:00.962Z,32.38
2023-02-11T16:53:29.287Z,33.03
2023-02-11T16:55:57.882Z,41.72
2023-02-11T16:58:26.263Z,42.72
2023-02-11T17:00:58.937Z,42.35
2023-02-11T17:03:30.038Z,43.42
2023-02-11T17:06:02.803Z,56.80
2023-02-11T17:08:31.430Z,47.78
2023-02-11T17:10:59.727Z,45.78
2023-02-11T17:13:28.048Z,41.25
2023-02-11T17:15:56.383Z,33.10
2023-02-11T17:18:24.691Z,32.90
2023-02-11T17:20:52.979Z,33.40
2023-02-11T17:23:22.593Z,34.25
2023-02-11T17:25:56.495Z,30.27
2023-02-11T17:28:25.313Z,27.38
2023-02-11T17:30:53.766Z,27.38
2023-02-11T17:33:24.554Z,32.30
2023-02-11T17:35:53.191Z,29.75
2023-02-11T17:38:23.007Z,31.33
2023-02-11T17:40:58.522Z,29.38
2023-02-11T17:43:26.952Z,35.78
2023-02-11T17:45:55.394Z,38.65
2023-02-11T17:48:23.778Z,32.55
2023-02-11T17:50:52.086Z,35.92
2023-02-11T17:53:20.370Z,36.90
2023-02-11T17:55:50.692Z,34.70
2023-02-11T17:58:19.117Z,35.97
2023-02-11T18:00:55.728Z,31.60
2023-02-11T18:03:26.213Z,38.92
2023-02-11T18:05:55.302Z,31.05
2023-02-11T18:08:23.731Z,33.25
2023-02-11T18:10:53.396Z,31.73
2023-02-11T18:13:22.045Z,30.83
2023-02-11T18:15:50.579Z,34.75
2023-02-11T18:18:19.262Z,34.90
2023-02-11T18:20:48.062Z,32.42
2023-02-11T18:23:16.328Z,28.90
2023-02-11T18:25:44.840Z,33.83
2023-02-11T18:28:14.474Z,29.38
2023-02-11T18:30:42.859Z,30.63
2023-02-11T18:33:14.109Z,29.95
2023-02-11T18:35:43.336Z,30.65
2023-02-11T18:38:11.609Z,29.70
2023-02-11T18:40:40.820Z,28.60
2023-02-11T18:43:09.465Z,30.08
2023-02-11T18:45:39.305Z,31.90
2023-02-11T18:48:07.632Z,29.80
2023-02-11T18:50:35.887Z,40.30
2023-02-11T18:53:04.247Z,36.47
2023-02-11T18:55:32.537Z,32.05
2023-02-11T18:58:00.849Z,36.92
2023-02-11T19:00:31.158Z,33.90
2023-02-11T19:03:01.111Z,31.38
2023-02-11T19:05:33.228Z,32.15
2023-02-11T19:08:02.283Z,34.67
2023-02-11T19:10:30.612Z,28.70
2023-02-11T19:12:59.598Z,34.15
2023-02-11T19:15:27.957Z,31.85
2023-02-11T19:17:56.277Z,33.83
2023-02-11T19:20:25.855Z,34.97
2023-02-11T19:22:54.142Z,32.17
2023-02-11T19:25:22.388Z,30.17
2023-02-11T19:27:50.667Z,33.13
2023-02-11T19:30:19.126Z,32.78
2023-02-11T19:32:52.305Z,32.75
2023-02-11T19:35:20.645Z,37.10
2023-02-11T19:37:50.294Z,32.58
2023-02-11T19:40:19.131Z,29.25
2023-02-11T19:42:47.416Z,32.65
2023-02-11T19:45:15.659Z,33.50
2023-02-11T19:47:44.285Z,38.55
2023-02-11T19:50:13.271Z,32.67
2023-02-11T19:52:41.882Z,35.92
2023-02-11T19:55:11.559Z,33.72
2023-02-11T19:57:39.931Z,33.83
2023-02-11T20:00:10.938Z,37.20
2023-02-11T20:02:43.360Z,33.30
2023-02-11T20:05:11.706Z,41.42
2023-02-11T20:07:39.964Z,35.03
2023-02-11T20:10:09.181Z,43.08
2023-02-11T20:12:39.257Z,64.57
2023-02-11T20:15:07.772Z,37.42
2023-02-11T20:17:36.075Z,31.85
2023-02-11T20:20:04.455Z,30.85
2023-02-11T20:22:32.777Z,28.80
2023-02-11T20:25:01.095Z,35.22
2023-02-11T20:27:32.027Z,32.45
2023-02-11T20:30:01.851Z,32.90
2023-02-11T20:32:32.805Z,33.47
2023-02-11T20:35:01.186Z,30.40
2023-02-11T20:37:29.696Z,29.15
2023-02-11T20:39:58.735Z,29.55
2023-02-11T20:42:27.336Z,38.65
2023-02-11T20:44:55.663Z,40.95
2023-02-11T20:47:25.270Z,34.72
2023-02-11T20:49:55.838Z,33.72
2023-02-11T20:52:24.174Z,34.22
2023-02-11T20:54:52.920Z,31.33
2023-02-11T20:57:21.236Z,35.20
2023-02-11T20:59:49.500Z,35.00
2023-02-11T21:02:17.862Z,36.72
2023-02-11T21:04:47.519Z,36.45
2023-02-11T21:07:15.989Z,32.05
2023-02-11T21:09:44.235Z,32.47
2023-02-11T21:12:13.042Z,30.10
2023-02-11T21:14:41.368Z,31.90
2023-02-11T21:17:09.608Z,31.23
2023-02-11T21:19:37.969Z,31.17
2023-02-11T21:22:07.634Z,31.60
2023-02-11T21:24:35.966Z,29.17
2023-02-11T21:27:04.530Z,31.98
2023-02-11T21:29:35.179Z,33.35
2023-02-11T21:32:05.110Z,28.85
2023-02-11T21:34:37.729Z,29.25
2023-02-11T21:37:07.632Z,29.08
2023-02-11T21:39:35.954Z,32.53
2023-02-11T21:42:04.237Z,30.88
2023-02-11T21:44:32.543Z,32.13
2023-02-11T21:47:00.980Z,32.33
2023-02-11T21:49:29.900Z,33.67
2023-02-11T21:51:58.201Z,35.85
2023-02-11T21:54:31.943Z,31.02
2023-02-11T21:57:02.949Z,35.20
2023-02-11T21:59:32.551Z,33.55
2023-02-11T22:02:01.211Z,29.63
2023-02-11T22:04:29.817Z,34.63
2023-02-11T22:06:58.650Z,30.98
2023-02-11T22:09:28.362Z,32.45
2023-02-11T22:11:56.958Z,32.50
2023-02-11T22:14:25.209Z,35.65
2023-02-11T22:16:53.543Z,36.50
2023-02-11T22:19:23.490Z,32.03
2023-02-11T22:21:51.805Z,36.47
2023-02-11T22:24:20.032Z,34.00
2023-02-11T22:26:49.667Z,37.80
2023-02-11T22:29:17.979Z,35.10
2023-02-11T22:31:46.284Z,38.03
2023-02-11T22:34:14.632Z,42.65
2023-02-11T22:36:45.368Z,42.90
2023-02-11T22:40:03.618Z,42.17
2023-02-11T22:42:34.341Z,35.42
2023-02-11T22:45:03.142Z,36.97
2023-02-11T22:47:36.355Z,32.75
2023-02-11T22:50:08.505Z,30.65
2023-02-11T22:52:36.940Z,35.60
2023-02-11T22:55:30.434Z,37.33
2023-02-11T22:58:27.139Z,38.35
2023-02-11T23:00:55.900Z,40.38
2023-02-11T23:03:24.348Z,36.25
2023-02-11T23:05:53.465Z,36.63
2023-02-11T23:08:22.437Z,34.42
2023-02-11T23:10:50.981Z,36.55
2023-02-11T23:13:19.367Z,33.38
2023-02-11T23:15:49.136Z,38.63
2023-02-11T23:18:17.580Z,30.42
2023-02-11T23:20:46.031Z,30.60
2023-02-11T23:23:14.368Z,35.65
2023-02-11T23:25:44.707Z,31.50
2023-02-11T23:28:13.443Z,33.35
2023-02-11T23:30:42.278Z,28.98
2023-02-11T23:33:12.271Z,30.77
2023-02-11T23:35:40.629Z,29.80
2023-02-11T23:38:09.079Z,29.83
2023-02-11T23:40:37.517Z,32.55
2023-02-11T23:43:05.828Z,31.15
2023-02-11T23:45:34.090Z,32.92
2023-02-11T23:48:02.563Z,31.73
2023-02-11T23:50:32.505Z,30.08
2023-02-11T23:53:00.864Z,37.38
2023-02-11T23:55:29.295Z,36.40
2023-02-11T23:57:57.584Z,32.75
